createdAt,value
2018-12-19T00:01:56.431Z,25.08
2018-12-19T00:04:25.567Z,28.50
2018-12-19T00:06:55.384Z,27.67
2018-12-19T00:09:24.594Z,36.42
2018-12-19T00:11:54.404Z,27.58
2018-12-19T00:14:23.541Z,27.25
2018-12-19T00:16:52.844Z,29.52
2018-12-19T00:19:21.995Z,30.90
2018-12-19T00:21:51.210Z,25.48
2018-12-19T00:24:20.641Z,25.27
2018-12-19T00:26:49.752Z,26.77
2018-12-19T00:29:19.734Z,24.37
2018-12-19T00:31:49.025Z,30.32
2018-12-19T00:34:18.165Z,25.20
2018-12-19T00:36:47.760Z,24.15
2018-12-19T00:39:16.906Z,33.23
2018-12-19T00:41:46.345Z,23.98
2018-12-19T00:44:15.853Z,28.38
2018-12-19T00:46:45.176Z,29.12
2018-12-19T00:49:14.746Z,28.92
2018-12-19T00:51:43.965Z,29.80
2018-12-19T00:54:13.091Z,31.15
2018-12-19T00:56:42.211Z,26.80
2018-12-19T00:59:11.386Z,26.23
2018-12-19T01:01:40.504Z,24.23
2018-12-19T01:04:09.656Z,22.73
2018-12-19T01:06:38.864Z,21.80
2018-12-19T01:09:08.853Z,20.52
2018-12-19T01:11:38.355Z,21.40
2018-12-19T01:14:07.584Z,25.92
2018-12-19T01:16:36.712Z,29.52
2018-12-19T01:19:06.595Z,20.88
2018-12-19T01:21:35.715Z,23.38
2018-12-19T01:24:04.967Z,23.07
2018-12-19T01:26:34.617Z,27.13
2018-12-19T01:29:03.756Z,27.80
2018-12-19T01:31:32.968Z,23.30
2018-12-19T01:34:02.945Z,26.33
2018-12-19T01:36:32.152Z,21.68
2018-12-19T01:39:01.307Z,30.65
2018-12-19T01:41:30.469Z,26.75
2018-12-19T01:43:59.734Z,23.60
2018-12-19T01:46:29.068Z,20.65
2018-12-19T01:48:58.952Z,20.52
2018-12-19T01:51:32.617Z,19.17
2018-12-19T01:54:01.792Z,18.42
2018-12-19T01:56:31.080Z,19.05
2018-12-19T01:59:00.360Z,25.55
2018-12-19T02:01:29.480Z,18.77
2018-12-19T02:03:59.304Z,21.02
2018-12-19T02:06:28.455Z,19.62
2018-12-19T02:08:57.983Z,26.23
2018-12-19T02:11:27.146Z,21.23
2018-12-19T02:13:56.408Z,23.65
2018-12-19T02:16:25.697Z,28.73
2018-12-19T02:18:54.820Z,23.05
2018-12-19T02:21:24.359Z,22.32
2018-12-19T02:23:53.499Z,22.40
2018-12-19T02:26:22.684Z,21.35
2018-12-19T02:28:51.827Z,25.97
2018-12-19T02:31:20.948Z,19.10
2018-12-19T02:33:50.864Z,16.60
2018-12-19T02:36:20.689Z,18.05
2018-12-19T02:38:52.226Z,15.55
2018-12-19T02:41:21.417Z,17.27
2018-12-19T02:43:50.620Z,19.50
2018-12-19T02:46:19.731Z,16.80
2018-12-19T02:48:48.863Z,16.87
2018-12-19T02:51:18.404Z,14.80
2018-12-19T02:53:47.673Z,18.00
2018-12-19T02:56:16.828Z,14.63
2018-12-19T02:58:46.027Z,15.85
2018-12-19T03:01:15.221Z,18.77
2018-12-19T03:03:44.368Z,21.68
2018-12-19T03:06:13.604Z,15.30
2018-12-19T03:08:42.772Z,17.60
2018-12-19T03:11:13.455Z,14.83
2018-12-19T03:13:43.620Z,16.93
2018-12-19T03:16:12.820Z,15.43
2018-12-19T03:18:41.984Z,19.95
2018-12-19T03:21:11.350Z,17.95
2018-12-19T03:23:40.459Z,19.92
2018-12-19T03:26:09.847Z,16.95
2018-12-19T03:28:38.964Z,17.60
2018-12-19T03:31:08.089Z,14.93
2018-12-19T03:33:37.288Z,22.93
2018-12-19T03:36:06.456Z,22.60
2018-12-19T03:38:35.641Z,23.07
2018-12-19T03:41:05.772Z,21.15
2018-12-19T03:43:35.326Z,19.30
2018-12-19T03:46:05.369Z,17.48
2018-12-19T03:48:39.713Z,19.40
2018-12-19T03:51:08.897Z,15.55
2018-12-19T03:53:38.075Z,23.20
2018-12-19T03:56:07.403Z,18.27
2018-12-19T03:58:36.540Z,21.35
2018-12-19T04:01:05.673Z,18.50
2018-12-19T04:03:35.797Z,20.55
2018-12-19T04:06:05.804Z,17.92
2018-12-19T04:08:35.310Z,18.32
2018-12-19T04:11:05.280Z,18.67
2018-12-19T04:13:34.440Z,20.75
2018-12-19T04:16:03.663Z,24.32
2018-12-19T04:18:32.854Z,17.42
2018-12-19T04:21:02.005Z,19.40
2018-12-19T04:23:31.232Z,18.25
2018-12-19T04:26:00.576Z,24.60
2018-12-19T04:28:29.818Z,21.07
2018-12-19T04:30:59.606Z,19.12
2018-12-19T04:33:29.073Z,14.83
2018-12-19T04:35:59.296Z,15.50
2018-12-19T04:38:28.742Z,14.40
2018-12-19T04:40:58.033Z,15.60
2018-12-19T04:43:27.176Z,15.70
2018-12-19T04:45:56.384Z,16.30
2018-12-19T04:48:25.536Z,16.17
2018-12-19T04:50:54.696Z,20.25
2018-12-19T04:53:23.888Z,17.12
2018-12-19T04:55:53.100Z,16.45
2018-12-19T04:58:22.351Z,17.25
2018-12-19T05:00:51.664Z,21.55
2018-12-19T05:03:20.928Z,19.85
2018-12-19T05:05:50.248Z,18.25
2018-12-19T05:08:19.388Z,16.62
2018-12-19T05:10:48.517Z,17.23
2018-12-19T05:13:17.659Z,16.02
2018-12-19T05:15:47.321Z,20.32
2018-12-19T05:18:16.688Z,18.40
2018-12-19T05:20:46.104Z,23.15
2018-12-19T05:23:15.272Z,18.77
2018-12-19T05:25:45.360Z,19.85
2018-12-19T05:28:14.500Z,15.43
2018-12-19T05:30:43.661Z,17.15
2018-12-19T05:33:12.804Z,15.30
2018-12-19T05:35:41.962Z,19.12
2018-12-19T05:38:11.107Z,15.48
2018-12-19T05:40:40.340Z,15.10
2018-12-19T05:43:09.475Z,15.13
2018-12-19T05:45:39.039Z,13.30
2018-12-19T05:48:08.200Z,12.58
2018-12-19T05:50:37.350Z,14.95
2018-12-19T05:53:06.691Z,15.53
2018-12-19T05:55:35.817Z,17.57
2018-12-19T05:58:05.392Z,21.65
2018-12-19T06:00:34.644Z,20.25
2018-12-19T06:03:04.203Z,16.87
2018-12-19T06:05:33.354Z,15.13
2018-12-19T06:08:02.618Z,17.37
2018-12-19T06:10:31.739Z,16.50
2018-12-19T06:13:00.874Z,20.97
2018-12-19T06:15:30.652Z,23.80
2018-12-19T06:18:00.631Z,16.32
2018-12-19T06:20:29.759Z,13.70
2018-12-19T06:22:58.866Z,18.10
2018-12-19T06:25:27.977Z,15.78
2018-12-19T06:27:57.923Z,12.58
2018-12-19T06:30:29.217Z,16.02
2018-12-19T06:32:58.493Z,19.15
2018-12-19T06:35:28.376Z,14.53
2018-12-19T06:37:57.533Z,15.43
2018-12-19T06:40:32.471Z,15.40
2018-12-19T06:42:57.887Z,14.93
2018-12-19T06:45:27.028Z,17.30
2018-12-19T06:47:56.193Z,16.23
2018-12-19T06:50:25.484Z,14.47
2018-12-19T06:52:54.624Z,18.67
2018-12-19T06:55:24.044Z,19.70
2018-12-19T06:57:53.534Z,16.65
2018-12-19T07:00:29.973Z,16.85
2018-12-19T07:02:59.288Z,18.27
2018-12-19T07:05:28.487Z,16.52
2018-12-19T07:07:58.124Z,19.00
2018-12-19T07:10:27.339Z,13.00
2018-12-19T07:12:56.589Z,15.72
2018-12-19T07:15:25.730Z,17.75
2018-12-19T07:17:54.940Z,18.30
2018-12-19T07:20:24.248Z,13.60
2018-12-19T07:22:53.397Z,16.48
2018-12-19T07:25:22.532Z,17.37
2018-12-19T07:27:51.827Z,16.90
2018-12-19T07:30:20.994Z,14.45
2018-12-19T07:32:50.181Z,15.48
2018-12-19T07:35:19.396Z,17.52
2018-12-19T07:37:48.584Z,15.70
2018-12-19T07:40:18.235Z,17.77
2018-12-19T07:42:47.456Z,17.37
2018-12-19T07:45:16.655Z,14.28
2018-12-19T07:47:45.855Z,22.22
2018-12-19T07:50:15.927Z,15.75
2018-12-19T07:52:45.888Z,16.37
2018-12-19T07:55:15.040Z,17.55
2018-12-19T07:57:44.228Z,15.15
2018-12-19T08:00:13.411Z,17.03
2018-12-19T08:02:43.337Z,19.60
2018-12-19T08:05:12.544Z,23.50
2018-12-19T08:07:41.744Z,18.75
2018-12-19T08:10:12.407Z,21.57
2018-12-19T08:12:41.541Z,21.50
2018-12-19T08:15:11.184Z,22.90
2018-12-19T08:17:40.348Z,21.15
2018-12-19T08:20:10.224Z,25.70
2018-12-19T08:22:39.396Z,19.32
2018-12-19T08:25:09.448Z,23.20
2018-12-19T08:27:39.144Z,21.93
2018-12-19T08:30:10.608Z,18.67
2018-12-19T08:32:39.876Z,18.00
2018-12-19T08:35:09.096Z,16.87
2018-12-19T08:37:38.308Z,25.52
2018-12-19T08:40:08.728Z,34.97
2018-12-19T08:42:37.920Z,35.38
2018-12-19T08:45:07.860Z,20.62
2018-12-19T08:47:36.983Z,19.65
2018-12-19T08:50:10.024Z,19.35
2018-12-19T08:52:39.268Z,24.57
2018-12-19T08:55:09.298Z,18.30
2018-12-19T08:57:38.432Z,17.45
2018-12-19T09:00:12.052Z,21.63
2018-12-19T09:02:41.384Z,17.83
2018-12-19T09:05:10.702Z,18.65
2018-12-19T09:07:40.040Z,24.37
2018-12-19T09:10:10.001Z,21.23
2018-12-19T09:12:39.223Z,19.45
2018-12-19T09:15:09.044Z,17.32
2018-12-19T09:17:38.274Z,23.50
2018-12-19T09:22:47.280Z,21.40
2018-12-19T09:25:16.967Z,20.60
2018-12-19T09:27:46.191Z,18.77
2018-12-19T09:30:15.381Z,21.37
2018-12-19T09:32:44.632Z,18.55
2018-12-19T09:35:14.217Z,24.47
2018-12-19T09:37:43.376Z,16.95
2018-12-19T09:40:13.207Z,21.40
2018-12-19T09:42:42.371Z,16.93
2018-12-19T09:45:11.642Z,21.60
2018-12-19T09:47:40.795Z,20.57
2018-12-19T09:50:10.530Z,17.23
2018-12-19T09:52:39.681Z,20.17
2018-12-19T09:55:08.868Z,17.97
2018-12-19T09:57:38.440Z,19.53
2018-12-19T10:00:14.727Z,25.90
2018-12-19T10:02:43.903Z,24.10
2018-12-19T10:05:13.217Z,25.97
2018-12-19T10:07:42.360Z,23.27
2018-12-19T10:10:11.224Z,29.10
2018-12-19T10:12:40.516Z,33.90
2018-12-19T10:15:09.784Z,27.20
2018-12-19T10:17:41.095Z,31.20
2018-12-19T10:20:10.316Z,31.50
2018-12-19T10:22:39.506Z,23.83
2018-12-19T10:25:15.247Z,35.03
2018-12-19T10:27:44.955Z,27.58
2018-12-19T10:30:15.637Z,33.33
2018-12-19T10:35:26.304Z,35.92
2018-12-19T10:37:55.568Z,26.33
2018-12-19T10:40:24.916Z,34.07
2018-12-19T10:42:54.244Z,29.23
2018-12-19T10:45:23.515Z,25.40
2018-12-19T10:47:53.043Z,28.50
2018-12-19T10:50:22.295Z,29.40
2018-12-19T10:52:51.448Z,28.60
2018-12-19T10:55:20.641Z,32.17
2018-12-19T10:57:49.749Z,30.30
2018-12-19T11:00:24.379Z,32.50
2018-12-19T11:02:53.568Z,30.77
2018-12-19T11:05:22.760Z,24.20
2018-12-19T11:07:52.038Z,33.13
2018-12-19T11:10:21.342Z,23.40
2018-12-19T11:12:50.528Z,30.97
2018-12-19T11:15:19.699Z,30.50
2018-12-19T11:17:48.965Z,29.93
2018-12-19T11:20:18.109Z,28.00
2018-12-19T11:22:47.399Z,31.83
2018-12-19T11:25:17.002Z,25.70
2018-12-19T11:27:46.164Z,31.87
2018-12-19T11:30:16.317Z,29.20
2018-12-19T11:32:45.950Z,31.00
2018-12-19T11:35:15.238Z,26.13
2018-12-19T11:37:44.366Z,29.37
2018-12-19T11:40:13.653Z,27.33
2018-12-19T11:42:42.812Z,33.33
2018-12-19T11:45:12.028Z,33.23
2018-12-19T11:47:41.148Z,32.30
2018-12-19T11:50:10.512Z,32.87
2018-12-19T11:52:40.408Z,46.30
2018-12-19T11:55:09.704Z,29.00
2018-12-19T11:57:39.429Z,31.97
2018-12-19T12:00:11.601Z,28.10
2018-12-19T12:02:40.729Z,28.80
2018-12-19T12:05:09.896Z,26.87
2018-12-19T12:07:39.276Z,26.30
2018-12-19T12:10:09.591Z,32.50
2018-12-19T12:12:38.817Z,28.67
2018-12-19T12:15:08.629Z,28.37
2018-12-19T12:17:37.835Z,31.53
2018-12-19T12:20:08.922Z,32.00
2018-12-19T12:22:38.059Z,35.43
2018-12-19T12:25:07.392Z,30.77
2018-12-19T12:27:37.588Z,32.43
2018-12-19T12:30:08.392Z,45.83
2018-12-19T12:32:37.680Z,40.30
2018-12-19T12:35:08.299Z,39.57
2018-12-19T12:37:37.502Z,43.60
2018-12-19T12:40:08.292Z,32.47
2018-12-19T12:42:38.588Z,35.63
2018-12-19T12:45:07.950Z,39.67
2018-12-19T12:47:37.375Z,36.13
2018-12-19T12:50:07.086Z,39.00
2018-12-19T12:52:36.706Z,44.37
2018-12-19T12:55:06.419Z,29.77
2018-12-19T12:57:36.055Z,37.00
2018-12-19T13:00:07.088Z,36.27
2018-12-19T13:02:36.819Z,38.40
2018-12-19T13:05:06.445Z,40.17
2018-12-19T13:07:36.172Z,44.43
2018-12-19T13:10:07.271Z,34.77
2018-12-19T13:12:36.680Z,33.60
2018-12-19T13:15:06.797Z,30.33
2018-12-19T13:17:36.301Z,37.20
2018-12-19T13:20:06.328Z,36.97
2018-12-19T13:22:35.491Z,29.17
2018-12-19T13:25:06.179Z,36.57
2018-12-19T13:27:35.321Z,37.63
2018-12-19T13:30:06.076Z,28.40
2018-12-19T13:32:35.660Z,28.10
2018-12-19T13:35:05.184Z,33.47
2018-12-19T13:37:35.451Z,27.00
2018-12-19T13:40:05.595Z,23.50
2018-12-19T13:42:35.080Z,27.83
2018-12-19T13:45:05.711Z,26.80
2018-12-19T13:47:34.984Z,24.40
2018-12-19T13:50:04.789Z,31.13
2018-12-19T13:52:34.340Z,25.63
2018-12-19T13:55:03.779Z,26.83
2018-12-19T13:57:32.890Z,24.07
2018-12-19T14:00:02.817Z,25.07
2018-12-19T14:02:31.932Z,23.83
2018-12-19T14:05:01.741Z,27.67
2018-12-19T14:07:30.881Z,34.33
2018-12-19T14:10:00.194Z,26.93
2018-12-19T14:12:29.840Z,26.50
2018-12-19T14:14:59.065Z,28.90
2018-12-19T14:17:29.003Z,28.73
2018-12-19T14:19:59.167Z,25.43
2018-12-19T14:22:28.944Z,37.93
2018-12-19T14:24:58.376Z,27.13
2018-12-19T14:27:27.610Z,30.87
2018-12-19T14:29:56.752Z,28.30
2018-12-19T14:32:26.077Z,26.77
2018-12-19T14:34:55.864Z,38.10
2018-12-19T14:37:25.004Z,27.50
2018-12-19T14:39:55.893Z,23.73
2018-12-19T14:42:25.197Z,26.17
2018-12-19T14:44:55.322Z,31.10
2018-12-19T14:47:24.504Z,40.60
2018-12-19T14:49:53.698Z,30.87
2018-12-19T14:52:22.878Z,33.50
2018-12-19T14:54:52.899Z,34.63
2018-12-19T14:57:22.095Z,23.90
2018-12-19T14:59:51.683Z,31.60
2018-12-19T15:02:21.391Z,39.50
2018-12-19T15:04:50.517Z,31.70
2018-12-19T15:07:19.900Z,39.60
2018-12-19T15:09:49.079Z,35.83
2018-12-19T15:12:18.348Z,36.93
2018-12-19T15:14:47.516Z,30.00
2018-12-19T15:17:17.151Z,23.73
2018-12-19T15:19:46.412Z,29.57
2018-12-19T15:22:16.012Z,33.40
2018-12-19T15:24:45.192Z,34.50
2018-12-19T15:27:15.004Z,36.27
2018-12-19T15:29:44.138Z,28.87
2018-12-19T15:32:13.440Z,30.60
2018-12-19T15:34:43.274Z,26.43
2018-12-19T15:37:12.603Z,31.33
2018-12-19T15:39:42.004Z,28.67
2018-12-19T15:42:11.273Z,26.97
2018-12-19T15:44:40.551Z,35.60
2018-12-19T15:47:10.430Z,32.47
2018-12-19T15:49:39.768Z,38.00
2018-12-19T15:52:10.854Z,39.80
2018-12-19T15:54:40.329Z,35.37
2018-12-19T15:57:11.336Z,31.53
2018-12-19T15:59:40.468Z,33.67
2018-12-19T16:02:09.783Z,37.53
2018-12-19T16:04:38.900Z,34.30
2018-12-19T16:07:08.791Z,36.97
2018-12-19T16:09:37.922Z,33.80
2018-12-19T16:12:07.224Z,44.83
2018-12-19T16:14:36.361Z,37.30
2018-12-19T16:17:05.580Z,41.30
2018-12-19T16:19:34.689Z,49.03
2018-12-19T16:22:04.149Z,45.07
2018-12-19T16:24:33.320Z,40.87
2018-12-19T16:27:02.464Z,40.00
2018-12-19T16:29:32.572Z,44.13
2018-12-19T16:32:02.225Z,33.80
2018-12-19T16:34:31.445Z,47.03
2018-12-19T16:37:02.584Z,40.80
2018-12-19T16:39:31.884Z,43.33
2018-12-19T16:42:01.181Z,51.77
2018-12-19T16:44:30.957Z,42.37
2018-12-19T16:47:00.185Z,42.80
2018-12-19T16:49:29.940Z,43.17
2018-12-19T16:51:59.177Z,41.93
2018-12-19T16:54:28.360Z,35.77
2018-12-19T16:56:58.004Z,41.00
2018-12-19T16:59:27.308Z,51.50
2018-12-19T17:01:56.604Z,48.43
2018-12-19T17:04:26.474Z,38.17
2018-12-19T17:06:57.261Z,39.93
2018-12-19T17:09:26.739Z,36.83
2018-12-19T17:11:56.007Z,43.30
2018-12-19T17:14:25.809Z,31.47
2018-12-19T17:16:55.046Z,40.53
2018-12-19T17:19:24.963Z,36.33
2018-12-19T17:21:54.360Z,40.07
2018-12-19T17:27:09.353Z,45.17
2018-12-19T17:29:39.195Z,45.93
2018-12-19T17:32:09.828Z,43.30
2018-12-19T17:34:39.064Z,44.87
2018-12-19T17:37:08.184Z,42.23
2018-12-19T17:39:37.387Z,40.30
2018-12-19T17:42:06.636Z,41.57
2018-12-19T17:44:35.894Z,43.17
2018-12-19T17:47:05.119Z,45.30
2018-12-19T17:49:34.252Z,44.30
2018-12-19T17:52:03.380Z,39.97
2018-12-19T17:54:32.685Z,43.30
2018-12-19T17:57:02.327Z,37.03
2018-12-19T17:59:31.452Z,39.93
2018-12-19T18:02:00.712Z,41.00
2018-12-19T18:04:29.878Z,38.67
2018-12-19T18:06:59.012Z,42.30
2018-12-19T18:09:28.169Z,41.17
2018-12-19T18:11:57.388Z,40.63
2018-12-19T18:14:26.610Z,36.40
2018-12-19T18:16:55.825Z,37.53
2018-12-19T18:19:25.034Z,42.83
2018-12-19T18:21:54.405Z,41.37
2018-12-19T18:24:23.604Z,35.03
2018-12-19T18:26:53.484Z,42.37
2018-12-19T18:29:22.701Z,33.47
2018-12-19T18:31:51.886Z,48.37
2018-12-19T18:34:21.625Z,47.37
2018-12-19T18:36:51.079Z,40.53
2018-12-19T18:39:25.984Z,44.43
2018-12-19T18:41:51.856Z,37.07
2018-12-19T18:44:21.844Z,42.43
2018-12-19T18:46:51.168Z,32.20
2018-12-19T18:49:21.192Z,29.27
2018-12-19T18:51:50.417Z,31.73
2018-12-19T18:54:19.638Z,31.33
2018-12-19T18:56:48.847Z,30.07
2018-12-19T18:59:20.098Z,33.20
2018-12-19T19:01:50.140Z,28.27
2018-12-19T19:04:19.331Z,24.37
2018-12-19T19:06:49.126Z,27.70
2018-12-19T19:09:18.438Z,20.80
2018-12-19T19:11:48.118Z,25.10
2018-12-19T19:14:17.576Z,30.70
2018-12-19T19:16:46.748Z,34.60
2018-12-19T19:19:16.260Z,38.30
2018-12-19T19:21:45.424Z,35.70
2018-12-19T19:24:14.712Z,40.80
2018-12-19T19:26:43.948Z,33.13
2018-12-19T19:29:13.232Z,35.13
2018-12-19T19:31:42.617Z,45.43
2018-12-19T19:34:11.756Z,35.03
2018-12-19T19:36:41.624Z,46.37
2018-12-19T19:39:10.907Z,40.70
2018-12-19T19:41:40.089Z,43.27
2018-12-19T19:44:09.332Z,47.33
2018-12-19T19:46:38.864Z,41.80
2018-12-19T19:49:08.005Z,40.87
2018-12-19T19:51:39.077Z,41.57
2018-12-19T19:54:08.512Z,44.33
2018-12-19T19:56:38.576Z,48.77
2018-12-19T19:59:08.298Z,46.43
2018-12-19T20:01:37.708Z,50.47
2018-12-19T20:04:07.590Z,44.73
2018-12-19T20:06:37.023Z,43.93
2018-12-19T20:09:09.284Z,38.60
2018-12-19T20:11:38.719Z,34.87
2018-12-19T20:14:09.380Z,48.77
2018-12-19T20:16:44.764Z,39.63
2018-12-19T20:19:14.240Z,51.20
2018-12-19T20:21:43.462Z,35.87
2018-12-19T20:24:12.995Z,24.10
2018-12-19T20:26:42.355Z,29.10
2018-12-19T20:29:12.056Z,41.57
2018-12-19T20:31:41.427Z,37.40
2018-12-19T20:34:10.861Z,41.40
2018-12-19T20:36:41.127Z,50.97
2018-12-19T20:39:10.803Z,28.80
2018-12-19T20:41:40.096Z,36.33
2018-12-19T20:44:09.303Z,36.87
2018-12-19T20:46:38.676Z,30.70
2018-12-19T20:49:08.434Z,37.43
2018-12-19T20:51:38.046Z,30.13
2018-12-19T20:54:07.273Z,28.70
2018-12-19T20:56:37.484Z,28.00
2018-12-19T20:59:06.961Z,47.27
2018-12-19T21:01:36.285Z,29.93
2018-12-19T21:04:05.667Z,31.37
2018-12-19T21:06:35.274Z,28.77
2018-12-19T21:09:07.700Z,15.83
2018-12-19T21:11:37.668Z,11.17
2018-12-19T21:14:07.652Z,10.10
2018-12-19T21:16:42.551Z,11.20
2018-12-19T21:19:12.256Z,10.07
2018-12-19T21:21:42.123Z,9.73
2018-12-19T21:24:13.219Z,13.00
2018-12-19T21:26:42.404Z,10.93
2018-12-19T21:29:11.797Z,12.73
2018-12-19T21:31:41.291Z,16.23
2018-12-19T21:34:10.454Z,20.30
2018-12-19T21:36:40.128Z,17.80
2018-12-19T21:39:11.696Z,11.80
2018-12-19T21:41:41.039Z,13.77
2018-12-19T21:44:11.106Z,10.47
2018-12-19T21:46:41.007Z,9.33
2018-12-19T21:49:10.496Z,11.47
2018-12-19T21:51:40.060Z,10.37
2018-12-19T21:54:09.572Z,15.27
2018-12-19T21:56:38.774Z,16.90
2018-12-19T21:59:08.125Z,15.20
2018-12-19T22:01:37.704Z,14.23
2018-12-19T22:04:06.990Z,15.50
2018-12-19T22:06:36.193Z,12.33
2018-12-19T22:09:09.436Z,19.03
2018-12-19T22:11:38.726Z,21.43
2018-12-19T22:14:07.969Z,22.30
2018-12-19T22:16:42.479Z,19.20
2018-12-19T22:19:11.692Z,32.10
2018-12-19T22:21:40.940Z,23.03
2018-12-19T22:24:10.476Z,22.53
2018-12-19T22:26:40.028Z,23.73
2018-12-19T22:29:09.901Z,25.97
2018-12-19T22:31:39.212Z,20.77
2018-12-19T22:34:11.084Z,17.63
2018-12-19T22:36:42.813Z,18.57
2018-12-19T22:39:18.926Z,23.70
2018-12-19T22:41:48.622Z,20.27
2018-12-19T22:44:18.127Z,22.33
2018-12-19T22:46:47.534Z,26.13
2018-12-19T22:49:17.071Z,21.10
2018-12-19T22:51:46.687Z,21.73
2018-12-19T22:54:17.160Z,19.07
2018-12-19T22:56:46.825Z,22.00
2018-12-19T22:59:16.198Z,22.20
2018-12-19T23:03:53.806Z,22.87
2018-12-19T23:06:23.161Z,28.30
2018-12-19T23:08:52.398Z,21.47
2018-12-19T23:11:21.902Z,22.97
2018-12-19T23:13:51.218Z,28.90
2018-12-19T23:16:20.666Z,23.47
2018-12-19T23:18:49.963Z,21.43
2018-12-19T23:21:19.365Z,21.47
2018-12-19T23:23:48.647Z,21.90
2018-12-19T23:26:17.983Z,21.90
2018-12-19T23:28:47.789Z,18.90
2018-12-19T23:31:17.093Z,21.90
2018-12-19T23:33:46.372Z,20.93
2018-12-19T23:36:15.804Z,18.40
2018-12-19T23:38:45.125Z,18.33
2018-12-19T23:41:14.368Z,20.87
2018-12-19T23:43:43.631Z,18.90
2018-12-19T23:46:12.855Z,23.80
2018-12-19T23:48:42.143Z,25.87
2018-12-19T23:51:11.433Z,25.50
2018-12-19T23:53:40.703Z,29.63
2018-12-19T23:56:10.014Z,27.70
2018-12-19T23:58:39.605Z,24.40
